createdAt,value
2022-07-31T00:00:47.946Z,17.09
2022-07-31T00:03:12.556Z,17.05
2022-07-31T00:05:39.292Z,17.04
2022-07-31T00:08:08.065Z,16.97
2022-07-31T00:10:31.892Z,16.92
2022-07-31T00:12:55.718Z,16.90
2022-07-31T00:15:20.231Z,16.87
2022-07-31T00:17:45.748Z,16.87
2022-07-31T00:20:13.457Z,16.83
2022-07-31T00:22:37.658Z,16.77
2022-07-31T00:25:02.853Z,16.78
2022-07-31T00:27:26.719Z,16.73
2022-07-31T00:29:50.587Z,16.70
2022-07-31T00:32:14.536Z,16.69
2022-07-31T00:34:38.266Z,16.67
2022-07-31T00:37:02.347Z,16.61
2022-07-31T00:39:26.745Z,16.63
2022-07-31T00:41:52.376Z,16.56
2022-07-31T00:44:16.273Z,16.55
2022-07-31T00:46:42.812Z,16.49
2022-07-31T00:49:08.662Z,16.48
2022-07-31T00:51:32.442Z,16.47
2022-07-31T00:53:56.793Z,16.44
2022-07-31T00:56:20.620Z,16.41
2022-07-31T00:58:45.738Z,16.38
2022-07-31T01:01:09.527Z,16.35
2022-07-31T01:03:33.289Z,16.31
2022-07-31T01:05:57.052Z,16.31
2022-07-31T01:08:20.987Z,16.30
2022-07-31T01:10:55.255Z,16.29
2022-07-31T01:13:28.388Z,16.24
2022-07-31T01:15:55.545Z,16.18
2022-07-31T01:18:19.976Z,16.15
2022-07-31T01:20:46.356Z,16.13
2022-07-31T01:23:55.067Z,16.10
2022-07-31T01:26:56.227Z,16.09
2022-07-31T01:29:27.524Z,16.04
2022-07-31T01:32:03.079Z,16.02
2022-07-31T01:34:35.236Z,16.00
2022-07-31T01:37:12.512Z,15.98
2022-07-31T01:39:38.365Z,15.94
2022-07-31T01:42:06.777Z,15.91
2022-07-31T01:44:40.487Z,15.85
2022-07-31T01:47:05.053Z,15.81
2022-07-31T01:49:30.125Z,15.67
2022-07-31T01:51:55.008Z,15.67
2022-07-31T01:54:29.956Z,15.59
2022-07-31T01:56:55.189Z,15.57
2022-07-31T01:59:22.884Z,15.62
2022-07-31T02:02:12.925Z,15.65
2022-07-31T02:04:38.372Z,15.65
2022-07-31T02:07:05.539Z,15.64
2022-07-31T02:09:31.471Z,15.60
2022-07-31T02:11:57.120Z,15.57
2022-07-31T02:14:22.271Z,15.56
2022-07-31T02:16:46.629Z,15.53
2022-07-31T02:19:18.850Z,15.54
2022-07-31T02:21:42.812Z,15.44
2022-07-31T02:24:07.360Z,15.46
2022-07-31T02:26:33.711Z,15.42
2022-07-31T02:28:58.479Z,15.36
2022-07-31T02:31:24.848Z,15.35
2022-07-31T02:33:49.374Z,15.36
2022-07-31T02:36:17.931Z,15.35
2022-07-31T02:38:43.545Z,15.31
2022-07-31T02:41:08.063Z,15.30
2022-07-31T02:43:35.005Z,15.23
2022-07-31T02:46:12.698Z,15.18
2022-07-31T02:48:38.359Z,15.21
2022-07-31T02:51:06.439Z,15.22
2022-07-31T02:53:32.402Z,15.17
2022-07-31T02:56:01.177Z,15.09
2022-07-31T02:58:29.096Z,14.84
2022-07-31T03:01:01.359Z,14.96
2022-07-31T03:03:26.663Z,14.96
2022-07-31T03:05:50.360Z,14.94
2022-07-31T03:08:14.395Z,14.86
2022-07-31T03:10:42.397Z,14.90
2022-07-31T03:13:08.139Z,14.88
2022-07-31T03:15:33.576Z,14.91
2022-07-31T03:17:57.719Z,14.84
2022-07-31T03:20:35.216Z,14.90
2022-07-31T03:22:59.332Z,14.84
2022-07-31T03:25:23.217Z,14.84
2022-07-31T03:27:55.779Z,14.81
2022-07-31T03:30:25.058Z,14.79
2022-07-31T03:32:50.671Z,14.76
2022-07-31T03:35:14.440Z,14.79
2022-07-31T03:37:38.223Z,14.79
2022-07-31T03:40:02.153Z,14.79
2022-07-31T03:42:30.008Z,14.73
2022-07-31T03:44:56.383Z,14.70
2022-07-31T03:47:20.239Z,14.64
2022-07-31T03:49:44.520Z,14.61
2022-07-31T03:52:12.034Z,14.62
2022-07-31T03:54:36.469Z,14.57
2022-07-31T03:57:12.093Z,14.60
2022-07-31T03:59:39.875Z,14.66
2022-07-31T04:02:14.795Z,14.51
2022-07-31T04:04:46.620Z,14.40
2022-07-31T04:07:11.120Z,14.18
2022-07-31T04:09:34.905Z,14.25
2022-07-31T04:12:00.767Z,14.46
2022-07-31T04:14:24.657Z,14.54
2022-07-31T04:16:48.797Z,14.61
2022-07-31T04:19:13.960Z,14.68
2022-07-31T04:21:38.236Z,14.70
2022-07-31T04:24:02.110Z,14.67
2022-07-31T04:27:10.743Z,14.79
2022-07-31T04:29:40.228Z,14.86
2022-07-31T04:32:05.227Z,14.93
2022-07-31T04:34:36.093Z,14.91
2022-07-31T04:37:00.177Z,15.04
2022-07-31T04:39:23.828Z,15.11
2022-07-31T04:41:47.599Z,15.16
2022-07-31T04:44:11.594Z,15.18
2022-07-31T04:47:01.865Z,15.26
2022-07-31T04:49:27.945Z,15.32
2022-07-31T04:51:53.168Z,15.35
2022-07-31T04:54:16.936Z,15.45
2022-07-31T04:56:43.863Z,15.49
2022-07-31T04:59:11.340Z,15.59
2022-07-31T05:01:38.039Z,15.69
2022-07-31T05:04:03.160Z,15.78
2022-07-31T05:06:36.791Z,15.86
2022-07-31T05:09:05.565Z,15.97
2022-07-31T05:11:34.467Z,16.06
2022-07-31T05:14:00.968Z,16.05
2022-07-31T05:16:25.675Z,16.22
2022-07-31T05:18:51.614Z,16.29
2022-07-31T05:21:53.313Z,16.39
2022-07-31T05:24:43.163Z,16.54
2022-07-31T05:27:09.728Z,16.63
2022-07-31T05:29:35.368Z,16.68
2022-07-31T05:32:00.760Z,16.62
2022-07-31T05:34:25.841Z,16.82
2022-07-31T05:36:51.229Z,16.79
2022-07-31T05:39:17.663Z,17.00
2022-07-31T05:42:06.776Z,17.20
2022-07-31T05:45:00.218Z,17.30
2022-07-31T05:47:23.992Z,17.39
2022-07-31T05:50:05.395Z,17.55
2022-07-31T05:52:29.053Z,17.56
2022-07-31T05:55:13.023Z,17.54
2022-07-31T05:57:50.347Z,17.56
2022-07-31T06:00:16.402Z,18.12
2022-07-31T06:02:41.912Z,18.47
2022-07-31T06:05:25.843Z,18.55
2022-07-31T06:07:52.078Z,18.94
2022-07-31T06:10:18.675Z,19.08
2022-07-31T06:12:42.493Z,19.72
2022-07-31T06:15:09.143Z,20.38
2022-07-31T06:17:43.638Z,20.99
2022-07-31T06:20:17.127Z,21.63
2022-07-31T06:22:43.839Z,21.86
2022-07-31T06:25:09.982Z,21.78
2022-07-31T06:27:36.620Z,22.39
2022-07-31T06:30:03.110Z,22.88
2022-07-31T06:32:28.291Z,23.25
2022-07-31T06:34:52.009Z,23.39
2022-07-31T06:37:15.919Z,23.96
2022-07-31T06:39:54.651Z,24.43
2022-07-31T06:42:46.408Z,25.03
2022-07-31T06:45:11.996Z,24.82
2022-07-31T06:47:49.143Z,25.31
2022-07-31T06:50:20.834Z,25.76
2022-07-31T06:52:51.815Z,25.49
2022-07-31T06:55:15.699Z,26.13
2022-07-31T06:57:40.032Z,26.22
2022-07-31T07:00:19.638Z,26.16
2022-07-31T07:02:45.885Z,25.93
2022-07-31T07:05:11.691Z,26.80
2022-07-31T07:07:38.024Z,26.33
2022-07-31T07:10:04.662Z,25.06
2022-07-31T07:12:47.297Z,25.76
2022-07-31T07:15:12.336Z,25.62
2022-07-31T07:17:36.587Z,26.19
2022-07-31T07:20:02.678Z,26.17
2022-07-31T07:22:31.360Z,26.17
2022-07-31T07:24:56.991Z,25.97
2022-07-31T07:27:20.811Z,25.87
2022-07-31T07:29:44.655Z,25.62
2022-07-31T07:32:08.448Z,25.64
2022-07-31T07:34:32.192Z,25.41
2022-07-31T07:36:56.415Z,25.28
2022-07-31T07:39:28.125Z,25.42
2022-07-31T07:41:53.431Z,25.35
2022-07-31T07:44:17.315Z,25.11
2022-07-31T07:46:41.188Z,24.53
2022-07-31T07:49:08.213Z,24.96
2022-07-31T07:51:33.228Z,24.95
2022-07-31T07:54:06.376Z,24.89
2022-07-31T07:56:50.563Z,24.45
2022-07-31T07:59:40.656Z,24.67
2022-07-31T08:02:28.101Z,24.18
2022-07-31T08:04:52.145Z,24.28
2022-07-31T08:07:16.755Z,24.56
2022-07-31T08:09:40.564Z,24.07
2022-07-31T08:12:17.444Z,24.14
2022-07-31T08:15:13.798Z,24.29
2022-07-31T08:18:00.275Z,23.76
2022-07-31T08:20:24.529Z,24.13
2022-07-31T08:22:48.977Z,24.35
2022-07-31T08:25:15.244Z,24.34
2022-07-31T08:27:42.973Z,24.53
2022-07-31T08:30:08.105Z,24.08
2022-07-31T08:32:32.411Z,24.24
2022-07-31T08:35:09.668Z,24.15
2022-07-31T08:37:52.092Z,24.11
2022-07-31T08:40:19.956Z,23.89
2022-07-31T08:42:47.278Z,24.23
2022-07-31T08:45:12.569Z,23.82
2022-07-31T08:47:48.376Z,23.83
2022-07-31T08:50:19.696Z,23.94
2022-07-31T08:52:46.120Z,24.37
2022-07-31T08:55:57.156Z,24.27
2022-07-31T08:58:21.124Z,24.33
2022-07-31T09:00:45.456Z,24.60
2022-07-31T09:03:09.265Z,24.71
2022-07-31T09:05:41.784Z,24.75
2022-07-31T09:08:08.478Z,24.63
2022-07-31T09:10:39.007Z,24.52
2022-07-31T09:13:13.810Z,24.82
2022-07-31T09:15:39.714Z,24.86
2022-07-31T09:18:03.491Z,24.90
2022-07-31T09:20:29.852Z,24.50
2022-07-31T09:23:06.969Z,24.79
2022-07-31T09:25:32.924Z,24.87
2022-07-31T09:28:03.704Z,24.78
2022-07-31T09:30:28.767Z,24.87
2022-07-31T09:33:16.843Z,25.05
2022-07-31T09:35:53.915Z,24.80
2022-07-31T09:38:18.434Z,25.12
2022-07-31T09:41:55.782Z,25.22
2022-07-31T09:44:09.522Z,25.24
2022-07-31T09:46:41.137Z,25.16
2022-07-31T09:49:07.542Z,25.02
2022-07-31T09:51:40.784Z,25.34
2022-07-31T09:54:05.579Z,25.60
2022-07-31T09:56:49.895Z,25.67
2022-07-31T09:59:13.700Z,25.52
2022-07-31T10:01:39.023Z,25.86
2022-07-31T10:04:04.564Z,25.97
2022-07-31T10:06:33.651Z,26.13
2022-07-31T10:08:58.993Z,25.86
2022-07-31T10:11:39.639Z,26.08
2022-07-31T10:14:21.855Z,25.94
2022-07-31T10:16:47.124Z,26.42
2022-07-31T10:19:36.671Z,26.84
2022-07-31T10:22:23.052Z,26.41
2022-07-31T10:24:50.032Z,27.29
2022-07-31T10:27:17.193Z,27.48
2022-07-31T10:29:42.984Z,27.58
2022-07-31T10:32:08.452Z,27.95
2022-07-31T10:34:37.818Z,28.39
2022-07-31T10:37:39.987Z,28.58
2022-07-31T10:40:35.176Z,28.73
2022-07-31T10:43:24.692Z,28.92
2022-07-31T10:46:09.290Z,29.47
2022-07-31T10:48:54.043Z,28.98
2022-07-31T10:51:51.718Z,29.75
2022-07-31T10:54:58.187Z,30.00
2022-07-31T10:57:56.254Z,30.01
2022-07-31T11:00:35.868Z,30.38
2022-07-31T11:03:44.372Z,30.03
2022-07-31T11:06:41.851Z,30.23
2022-07-31T11:09:28.253Z,30.36
2022-07-31T11:12:28.473Z,30.04
2022-07-31T11:15:29.553Z,31.08
2022-07-31T11:18:28.874Z,30.95
2022-07-31T11:21:22.360Z,30.50
2022-07-31T11:23:56.101Z,31.04
2022-07-31T11:26:32.787Z,31.57
2022-07-31T11:30:00.627Z,30.95
2022-07-31T11:31:50.036Z,31.04
2022-07-31T11:34:13.859Z,31.25
2022-07-31T11:36:37.698Z,30.65
2022-07-31T11:39:01.829Z,30.66
2022-07-31T11:41:30.864Z,30.09
2022-07-31T11:44:09.489Z,29.63
2022-07-31T11:46:35.310Z,30.49
2022-07-31T11:48:59.567Z,30.82
2022-07-31T11:51:23.820Z,30.54
2022-07-31T11:53:54.082Z,30.43
2022-07-31T11:56:22.672Z,30.40
2022-07-31T11:58:49.747Z,30.40
2022-07-31T12:01:14.927Z,31.08
2022-07-31T12:03:40.183Z,30.92
2022-07-31T12:06:05.609Z,31.27
2022-07-31T12:08:29.965Z,30.88
2022-07-31T12:10:54.900Z,30.61
2022-07-31T12:13:21.357Z,30.78
2022-07-31T12:16:00.809Z,30.37
2022-07-31T12:18:26.826Z,30.47
2022-07-31T12:20:55.192Z,30.29
2022-07-31T12:23:41.207Z,30.63
2022-07-31T12:26:05.685Z,30.75
2022-07-31T12:28:43.712Z,30.70
2022-07-31T12:31:17.392Z,30.66
2022-07-31T12:33:45.749Z,29.99
2022-07-31T12:36:15.189Z,30.33
2022-07-31T12:38:41.082Z,30.82
2022-07-31T12:41:09.848Z,30.46
2022-07-31T12:43:34.880Z,29.92
2022-07-31T12:46:00.352Z,30.35
2022-07-31T12:48:24.051Z,30.57
2022-07-31T12:50:49.324Z,30.74
2022-07-31T12:53:13.144Z,31.10
2022-07-31T12:55:36.909Z,30.63
2022-07-31T12:58:00.839Z,31.17
2022-07-31T13:00:27.603Z,31.04
2022-07-31T13:02:51.934Z,30.54
2022-07-31T13:05:15.899Z,31.33
2022-07-31T13:07:40.988Z,31.19
2022-07-31T13:10:20.505Z,30.15
2022-07-31T13:12:50.229Z,30.75
2022-07-31T13:15:14.099Z,31.23
2022-07-31T13:17:42.237Z,31.20
2022-07-31T13:20:08.781Z,31.39
2022-07-31T13:22:42.266Z,31.58
2022-07-31T13:25:07.224Z,31.70
2022-07-31T13:27:31.011Z,31.93
2022-07-31T13:29:55.032Z,32.02
2022-07-31T13:32:18.901Z,31.92
2022-07-31T13:34:42.595Z,31.92
2022-07-31T13:37:06.812Z,31.26
2022-07-31T13:39:32.332Z,31.82
2022-07-31T13:41:56.136Z,31.77
2022-07-31T13:44:19.860Z,32.07
2022-07-31T13:46:43.749Z,32.37
2022-07-31T13:49:10.585Z,32.35
2022-07-31T13:51:34.527Z,32.33
2022-07-31T13:53:58.438Z,32.80
2022-07-31T13:56:37.523Z,32.87
2022-07-31T13:59:06.972Z,32.54
2022-07-31T14:02:04.734Z,32.51
2022-07-31T14:04:21.333Z,32.05
2022-07-31T14:06:47.900Z,32.57
2022-07-31T14:09:11.613Z,32.25
2022-07-31T14:11:36.787Z,32.65
2022-07-31T14:14:00.519Z,32.92
2022-07-31T14:16:24.220Z,32.39
2022-07-31T14:18:47.937Z,32.65
2022-07-31T14:21:11.927Z,31.14
2022-07-31T14:23:40.958Z,32.49
2022-07-31T14:26:05.223Z,32.80
2022-07-31T14:28:30.428Z,33.08
2022-07-31T14:30:54.244Z,33.00
2022-07-31T14:33:17.942Z,33.15
2022-07-31T14:35:42.407Z,33.17
2022-07-31T14:38:06.103Z,33.33
2022-07-31T14:40:30.917Z,33.41
2022-07-31T14:42:54.591Z,32.77
2022-07-31T14:45:19.747Z,31.77
2022-07-31T14:47:46.407Z,31.97
2022-07-31T14:50:13.691Z,31.57
2022-07-31T14:52:41.316Z,32.00
2022-07-31T14:55:05.799Z,32.00
2022-07-31T14:57:31.588Z,31.97
2022-07-31T14:59:55.404Z,32.13
2022-07-31T15:02:22.767Z,32.21
2022-07-31T15:04:52.617Z,32.05
2022-07-31T15:07:39.498Z,31.32
2022-07-31T15:10:04.931Z,31.14
2022-07-31T15:12:28.728Z,31.55
2022-07-31T15:14:52.595Z,29.92
2022-07-31T15:17:16.236Z,30.80
2022-07-31T15:19:41.481Z,30.86
2022-07-31T15:22:09.772Z,30.83
2022-07-31T15:24:46.838Z,31.36
2022-07-31T15:27:13.262Z,31.01
2022-07-31T15:30:06.067Z,31.26
2022-07-31T15:32:20.866Z,31.09
2022-07-31T15:34:46.020Z,31.26
2022-07-31T15:37:09.835Z,31.38
2022-07-31T15:39:33.634Z,30.40
2022-07-31T15:41:58.191Z,30.21
2022-07-31T15:44:21.871Z,30.45
2022-07-31T15:46:45.679Z,30.62
2022-07-31T15:49:09.452Z,30.49
2022-07-31T15:51:34.712Z,30.59
2022-07-31T15:53:58.401Z,30.42
2022-07-31T15:56:22.275Z,29.81
2022-07-31T15:58:45.968Z,29.90
2022-07-31T16:01:09.745Z,29.92
2022-07-31T16:03:50.649Z,29.92
2022-07-31T16:06:17.103Z,29.80
2022-07-31T16:08:43.704Z,29.75
2022-07-31T16:11:07.574Z,29.39
2022-07-31T16:13:36.305Z,29.86
2022-07-31T16:16:00.112Z,29.53
2022-07-31T16:18:23.899Z,29.34
2022-07-31T16:20:48.008Z,28.84
2022-07-31T16:23:11.737Z,28.79
2022-07-31T16:25:37.069Z,29.02
2022-07-31T16:28:00.823Z,29.30
2022-07-31T16:30:27.304Z,29.23
2022-07-31T16:32:51.622Z,29.01
2022-07-31T16:35:15.581Z,29.14
2022-07-31T16:37:51.740Z,28.94
2022-07-31T16:40:28.769Z,28.73
2022-07-31T16:42:56.449Z,29.05
2022-07-31T16:45:20.389Z,28.72
2022-07-31T16:47:50.590Z,28.77
2022-07-31T16:50:15.563Z,28.85
2022-07-31T16:52:39.285Z,28.95
2022-07-31T16:55:03.166Z,29.03
2022-07-31T16:57:26.873Z,28.87
2022-07-31T16:59:56.869Z,28.82
2022-07-31T17:02:21.679Z,28.87
2022-07-31T17:04:45.383Z,28.82
2022-07-31T17:07:10.027Z,28.88
2022-07-31T17:09:33.986Z,28.57
2022-07-31T17:11:58.400Z,28.72
2022-07-31T17:14:25.404Z,28.77
2022-07-31T17:16:52.980Z,28.78
2022-07-31T17:19:41.786Z,28.73
2022-07-31T17:22:00.726Z,28.70
2022-07-31T17:24:24.459Z,28.62
2022-07-31T17:26:50.068Z,28.65
2022-07-31T17:29:14.181Z,28.57
2022-07-31T17:31:38.035Z,28.50
2022-07-31T17:34:07.296Z,28.48
2022-07-31T17:36:34.050Z,28.49
2022-07-31T17:38:57.821Z,28.45
2022-07-31T17:41:24.673Z,28.41
2022-07-31T17:43:50.615Z,28.29
2022-07-31T17:46:36.579Z,28.35
2022-07-31T17:49:09.925Z,28.27
2022-07-31T17:51:33.692Z,28.22
2022-07-31T17:53:59.393Z,28.19
2022-07-31T17:56:23.428Z,28.13
2022-07-31T17:58:47.195Z,28.07
2022-07-31T18:01:11.056Z,28.01
2022-07-31T18:03:34.751Z,27.95
2022-07-31T18:05:59.846Z,27.88
2022-07-31T18:08:23.747Z,27.80
2022-07-31T18:10:54.491Z,27.75
2022-07-31T18:13:18.569Z,27.70
2022-07-31T18:15:42.602Z,27.61
2022-07-31T18:18:06.631Z,27.54
2022-07-31T18:20:30.340Z,27.49
2022-07-31T18:22:55.429Z,27.43
2022-07-31T18:25:19.222Z,27.37
2022-07-31T18:27:44.173Z,27.26
2022-07-31T18:30:09.943Z,27.24
2022-07-31T18:32:33.782Z,27.13
2022-07-31T18:34:57.744Z,27.08
2022-07-31T18:37:21.583Z,27.00
2022-07-31T18:39:47.921Z,26.95
2022-07-31T18:42:12.933Z,26.86
2022-07-31T18:44:36.963Z,26.81
2022-07-31T18:47:00.808Z,26.76
2022-07-31T18:50:59.456Z,26.69
2022-07-31T18:52:08.755Z,26.62
2022-07-31T18:54:32.797Z,26.54
2022-07-31T18:56:57.923Z,26.48
2022-07-31T18:59:21.604Z,26.44
2022-07-31T19:01:45.498Z,26.37
2022-07-31T19:04:09.332Z,26.31
2022-07-31T19:06:33.137Z,26.27
2022-07-31T19:08:57.191Z,26.21
2022-07-31T19:11:21.109Z,26.13
2022-07-31T19:13:47.293Z,26.08
2022-07-31T19:16:11.716Z,25.99
2022-07-31T19:18:36.204Z,25.94
2022-07-31T19:21:23.070Z,25.89
2022-07-31T19:23:44.647Z,25.83
2022-07-31T19:26:08.514Z,25.78
2022-07-31T19:28:32.794Z,25.72
2022-07-31T19:30:57.989Z,25.70
2022-07-31T19:33:21.825Z,25.65
2022-07-31T19:35:58.409Z,25.59
2022-07-31T19:38:24.424Z,25.50
2022-07-31T19:40:48.431Z,25.43
2022-07-31T19:43:12.896Z,25.38
2022-07-31T19:45:58.746Z,25.35
2022-07-31T19:48:23.371Z,25.29
2022-07-31T19:50:47.290Z,25.24
2022-07-31T19:53:11.024Z,25.20
2022-07-31T19:55:36.189Z,25.15
2022-07-31T19:58:01.687Z,25.11
2022-07-31T20:00:25.356Z,25.07
2022-07-31T20:02:50.543Z,25.05
2022-07-31T20:05:15.991Z,25.00
2022-07-31T20:07:39.764Z,24.95
2022-07-31T20:10:03.529Z,24.91
2022-07-31T20:12:27.284Z,24.88
2022-07-31T20:14:50.956Z,24.82
2022-07-31T20:17:14.752Z,24.81
2022-07-31T20:20:14.552Z,24.77
2022-07-31T20:22:23.937Z,24.74
2022-07-31T20:24:47.612Z,24.68
2022-07-31T20:27:11.387Z,24.65
2022-07-31T20:29:35.104Z,24.62
2022-07-31T20:31:58.924Z,24.60
2022-07-31T20:34:23.436Z,24.57
2022-07-31T20:36:47.123Z,24.52
2022-07-31T20:39:12.311Z,24.47
2022-07-31T20:41:36.136Z,24.44
2022-07-31T20:44:00.099Z,24.42
2022-07-31T20:46:23.820Z,24.38
2022-07-31T20:48:47.633Z,24.35
2022-07-31T20:51:15.959Z,24.32
2022-07-31T20:53:39.672Z,24.30
2022-07-31T20:56:04.925Z,24.26
2022-07-31T20:58:29.103Z,24.25
2022-07-31T21:00:54.445Z,24.20
2022-07-31T21:03:19.214Z,24.21
2022-07-31T21:05:43.376Z,24.17
2022-07-31T21:08:07.621Z,24.15
2022-07-31T21:10:31.449Z,24.11
2022-07-31T21:12:56.808Z,24.09
2022-07-31T21:15:41.670Z,23.99
2022-07-31T21:18:05.580Z,23.88
2022-07-31T21:20:49.943Z,23.84
2022-07-31T21:23:14.344Z,23.83
2022-07-31T21:25:38.416Z,23.84
2022-07-31T21:28:04.936Z,23.81
2022-07-31T21:30:30.076Z,23.79
2022-07-31T21:32:54.192Z,23.73
2022-07-31T21:35:37.130Z,23.73
2022-07-31T21:38:01.482Z,23.67
2022-07-31T21:40:28.012Z,23.62
2022-07-31T21:42:57.337Z,23.53
2022-07-31T21:45:23.890Z,23.50
2022-07-31T21:47:52.859Z,23.38
2022-07-31T21:50:27.853Z,23.32
2022-07-31T21:52:53.191Z,23.22
2022-07-31T21:55:17.156Z,23.14
2022-07-31T21:57:59.764Z,23.15
2022-07-31T22:00:28.452Z,23.06
2022-07-31T22:02:53.721Z,22.99
2022-07-31T22:05:35.147Z,22.97
2022-07-31T22:07:59.019Z,22.89
2022-07-31T22:10:22.828Z,22.87
2022-07-31T22:12:46.981Z,22.78
2022-07-31T22:15:15.476Z,22.77
2022-07-31T22:17:41.010Z,22.73
2022-07-31T22:20:07.100Z,22.70
2022-07-31T22:22:31.959Z,22.59
2022-07-31T22:24:56.275Z,22.57
2022-07-31T22:27:37.601Z,22.19
2022-07-31T22:30:02.023Z,22.16
2022-07-31T22:32:26.249Z,22.02
2022-07-31T22:34:51.736Z,21.98
2022-07-31T22:37:16.263Z,21.95
2022-07-31T22:39:40.260Z,22.19
2022-07-31T22:42:04.558Z,22.12
2022-07-31T22:44:28.891Z,22.09
2022-07-31T22:46:53.560Z,21.89
2022-07-31T22:49:18.098Z,22.00
2022-07-31T22:51:46.455Z,22.12
2022-07-31T22:54:10.627Z,21.87
2022-07-31T22:56:34.462Z,21.91
2022-07-31T22:58:58.268Z,21.90
2022-07-31T23:01:22.000Z,22.00
2022-07-31T23:03:45.759Z,22.02
2022-07-31T23:06:31.010Z,21.93
2022-07-31T23:08:55.313Z,21.85
2022-07-31T23:11:19.268Z,21.77
2022-07-31T23:13:43.057Z,21.90
2022-07-31T23:16:07.087Z,21.74
2022-07-31T23:18:30.879Z,21.87
2022-07-31T23:20:54.920Z,21.89
2022-07-31T23:23:18.626Z,21.89
2022-07-31T23:25:44.241Z,21.89
2022-07-31T23:28:08.050Z,21.72
2022-07-31T23:30:31.707Z,21.85
2022-07-31T23:32:56.395Z,21.69
2022-07-31T23:35:20.167Z,21.76
2022-07-31T23:37:44.687Z,21.75
2022-07-31T23:40:09.752Z,21.79
2022-07-31T23:42:39.880Z,21.73
2022-07-31T23:45:03.632Z,21.62
2022-07-31T23:47:46.084Z,21.61
2022-07-31T23:50:11.055Z,21.38
2022-07-31T23:52:34.818Z,21.44
2022-07-31T23:54:58.739Z,21.53
2022-07-31T23:57:22.570Z,21.54
2022-07-31T23:59:47.804Z,21.46
